sensor_id;sensor_type;location;lat;lon;timestamp;pressure;altitude;pressure_sealevel;temperature;humidity
47670;BME280;33408;52.062;11.722;2023-07-13T00:00:20;100897.31;;;18.40;100.00
47670;BME280;33408;52.062;11.722;2023-07-13T00:02:47;100906.88;;;18.23;100.00
47670;BME280;33408;52.062;11.722;2023-07-13T00:05:14;100911.56;;;18.17;100.00
47670;BME280;33408;52.062;11.722;2023-07-13T00:07:40;100913.91;;;18.23;100.00
47670;BME280;33408;52.062;11.722;2023-07-13T00:10:08;100916.44;;;18.25;100.00
47670;BME280;33408;52.062;11.722;2023-07-13T00:12:37;100911.47;;;17.80;100.00
47670;BME280;33408;52.062;11.722;2023-07-13T00:15:07;100921.63;;;17.88;100.00
47670;BME280;33408;52.062;11.722;2023-07-13T00:17:37;100927.66;;;17.90;100.00
47670;BME280;33408;52.062;11.722;2023-07-13T00:20:05;100936.47;;;17.68;100.00
47670;BME280;33408;52.062;11.722;2023-07-13T00:22:33;100943.97;;;17.57;100.00
47670;BME280;33408;52.062;11.722;2023-07-13T00:25:00;100957.72;;;17.62;100.00
47670;BME280;33408;52.062;11.722;2023-07-13T00:27:26;100945.47;;;17.63;100.00
47670;BME280;33408;52.062;11.722;2023-07-13T00:29:55;100951.38;;;17.47;100.00
47670;BME280;33408;52.062;11.722;2023-07-13T00:32:22;100948.16;;;17.61;100.00
47670;BME280;33408;52.062;11.722;2023-07-13T00:34:51;100944.63;;;17.42;100.00
47670;BME280;33408;52.062;11.722;2023-07-13T00:37:18;100948.97;;;17.43;100.00
47670;BME280;33408;52.062;11.722;2023-07-13T00:39:45;100950.88;;;17.39;100.00
47670;BME280;33408;52.062;11.722;2023-07-13T00:42:11;100947.38;;;17.99;100.00
47670;BME280;33408;52.062;11.722;2023-07-13T00:44:38;100945.84;;;17.74;100.00
47670;BME280;33408;52.062;11.722;2023-07-13T00:47:05;100944.78;;;17.78;100.00
47670;BME280;33408;52.062;11.722;2023-07-13T00:49:35;100943.78;;;17.81;100.00
47670;BME280;33408;52.062;11.722;2023-07-13T00:52:06;100936.44;;;17.49;100.00
47670;BME280;33408;52.062;11.722;2023-07-13T00:54:37;100938.56;;;18.00;100.00
47670;BME280;33408;52.062;11.722;2023-07-13T00:57:09;100939.44;;;18.00;100.00
47670;BME280;33408;52.062;11.722;2023-07-13T00:59:38;100937.94;;;18.69;100.00
47670;BME280;33408;52.062;11.722;2023-07-13T01:02:06;100943.94;;;19.08;100.00
47670;BME280;33408;52.062;11.722;2023-07-13T01:04:33;100944.94;;;19.56;100.00
47670;BME280;33408;52.062;11.722;2023-07-13T01:07:00;100948.22;;;19.26;100.00
47670;BME280;33408;52.062;11.722;2023-07-13T01:09:28;100948.22;;;19.26;100.00
47670;BME280;33408;52.062;11.722;2023-07-13T01:11:54;100945.47;;;18.75;100.00
47670;BME280;33408;52.062;11.722;2023-07-13T01:14:21;100946.19;;;18.79;100.00
47670;BME280;33408;52.062;11.722;2023-07-13T01:16:49;100948.06;;;18.94;100.00
47670;BME280;33408;52.062;11.722;2023-07-13T01:19:27;100947.09;;;18.61;100.00
47670;BME280;33408;52.062;11.722;2023-07-13T01:22:03;100944.00;;;18.33;100.00
47670;BME280;33408;52.062;11.722;2023-07-13T01:24:34;100946.63;;;18.33;100.00
47670;BME280;33408;52.062;11.722;2023-07-13T01:27:01;100946.34;;;18.39;100.00
47670;BME280;33408;52.062;11.722;2023-07-13T01:29:28;100944.38;;;18.26;100.00
47670;BME280;33408;52.062;11.722;2023-07-13T01:31:54;100937.66;;;18.01;100.00
47670;BME280;33408;52.062;11.722;2023-07-13T01:34:21;100940.13;;;18.04;100.00
47670;BME280;33408;52.062;11.722;2023-07-13T01:36:48;100933.44;;;18.35;100.00
47670;BME280;33408;52.062;11.722;2023-07-13T01:39:16;100932.13;;;18.80;100.00
47670;BME280;33408;52.062;11.722;2023-07-13T01:41:42;100928.19;;;18.71;100.00
47670;BME280;33408;52.062;11.722;2023-07-13T01:44:09;100929.72;;;18.02;100.00
47670;BME280;33408;52.062;11.722;2023-07-13T01:46:36;100933.56;;;17.95;100.00
47670;BME280;33408;52.062;11.722;2023-07-13T01:49:02;100940.16;;;18.59;100.00
47670;BME280;33408;52.062;11.722;2023-07-13T01:51:29;100939.72;;;18.86;100.00
47670;BME280;33408;52.062;11.722;2023-07-13T01:53:56;100939.22;;;18.78;100.00
47670;BME280;33408;52.062;11.722;2023-07-13T01:56:26;100940.91;;;18.06;100.00
47670;BME280;33408;52.062;11.722;2023-07-13T01:58:53;100940.69;;;17.73;100.00
47670;BME280;33408;52.062;11.722;2023-07-13T02:01:20;100940.91;;;18.06;100.00
47670;BME280;33408;52.062;11.722;2023-07-13T02:03:46;100939.69;;;18.69;100.00
47670;BME280;33408;52.062;11.722;2023-07-13T02:06:13;100954.41;;;18.54;100.00
47670;BME280;33408;52.062;11.722;2023-07-13T02:08:40;100944.75;;;17.99;100.00
47670;BME280;33408;52.062;11.722;2023-07-13T02:11:07;100952.78;;;17.75;100.00
47670;BME280;33408;52.062;11.722;2023-07-13T02:13:35;100953.13;;;18.26;100.00
47670;BME280;33408;52.062;11.722;2023-07-13T02:16:01;100953.44;;;18.37;100.00
47670;BME280;33408;52.062;11.722;2023-07-13T02:18:28;100950.13;;;18.34;100.00
47670;BME280;33408;52.062;11.722;2023-07-13T02:20:55;100950.03;;;18.72;100.00
47670;BME280;33408;52.062;11.722;2023-07-13T02:23:21;100946.41;;;18.74;100.00
47670;BME280;33408;52.062;11.722;2023-07-13T02:25:48;100946.63;;;18.89;100.00
47670;BME280;33408;52.062;11.722;2023-07-13T02:28:14;100941.09;;;18.39;100.00
47670;BME280;33408;52.062;11.722;2023-07-13T02:30:42;100942.25;;;18.34;100.00
47670;BME280;33408;52.062;11.722;2023-07-13T02:33:09;100943.16;;;18.33;100.00
47670;BME280;33408;52.062;11.722;2023-07-13T02:35:35;100928.84;;;17.83;100.00
47670;BME280;33408;52.062;11.722;2023-07-13T02:38:02;100925.38;;;17.82;100.00
47670;BME280;33408;52.062;11.722;2023-07-13T02:40:29;100932.06;;;17.90;100.00
47670;BME280;33408;52.062;11.722;2023-07-13T02:42:58;100933.31;;;18.19;100.00
47670;BME280;33408;52.062;11.722;2023-07-13T02:45:25;100939.94;;;17.90;100.00
47670;BME280;33408;52.062;11.722;2023-07-13T02:47:53;100943.91;;;17.18;100.00
47670;BME280;33408;52.062;11.722;2023-07-13T02:50:20;100943.47;;;17.28;100.00
47670;BME280;33408;52.062;11.722;2023-07-13T02:52:46;100939.28;;;17.04;100.00
47670;BME280;33408;52.062;11.722;2023-07-13T02:55:13;100935.19;;;16.97;100.00
47670;BME280;33408;52.062;11.722;2023-07-13T02:57:39;100937.75;;;16.98;100.00
47670;BME280;33408;52.062;11.722;2023-07-13T03:00:07;100934.50;;;16.93;100.00
47670;BME280;33408;52.062;11.722;2023-07-13T03:02:35;100937.41;;;16.85;100.00
47670;BME280;33408;52.062;11.722;2023-07-13T03:05:03;100940.06;;;17.06;100.00
47670;BME280;33408;52.062;11.722;2023-07-13T03:07:30;100936.28;;;16.92;100.00
47670;BME280;33408;52.062;11.722;2023-07-13T03:09:58;100936.31;;;16.69;100.00
47670;BME280;33408;52.062;11.722;2023-07-13T03:12:25;100940.41;;;16.54;100.00
47670;BME280;33408;52.062;11.722;2023-07-13T03:14:52;100937.06;;;16.50;100.00
47670;BME280;33408;52.062;11.722;2023-07-13T03:17:18;100938.50;;;16.35;100.00
47670;BME280;33408;52.062;11.722;2023-07-13T03:19:45;100938.09;;;16.24;100.00
47670;BME280;33408;52.062;11.722;2023-07-13T03:22:16;100952.41;;;16.37;100.00
47670;BME280;33408;52.062;11.722;2023-07-13T03:24:42;100952.09;;;16.45;100.00
47670;BME280;33408;52.062;11.722;2023-07-13T03:27:09;100958.22;;;16.22;100.00
47670;BME280;33408;52.062;11.722;2023-07-13T03:29:35;100956.41;;;16.24;100.00
47670;BME280;33408;52.062;11.722;2023-07-13T03:32:02;100956.34;;;16.26;100.00
47670;BME280;33408;52.062;11.722;2023-07-13T03:34:29;100954.09;;;16.38;100.00
47670;BME280;33408;52.062;11.722;2023-07-13T03:36:56;100963.09;;;16.31;100.00
47670;BME280;33408;52.062;11.722;2023-07-13T03:39:24;100962.19;;;16.32;100.00
47670;BME280;33408;52.062;11.722;2023-07-13T03:41:52;100963.50;;;16.20;100.00
47670;BME280;33408;52.062;11.722;2023-07-13T03:44:19;100968.84;;;16.63;100.00
47670;BME280;33408;52.062;11.722;2023-07-13T03:46:45;100967.00;;;16.65;100.00
47670;BME280;33408;52.062;11.722;2023-07-13T03:49:12;100968.59;;;16.91;100.00
47670;BME280;33408;52.062;11.722;2023-07-13T03:51:38;100966.28;;;17.47;100.00
47670;BME280;33408;52.062;11.722;2023-07-13T03:54:05;100961.63;;;18.31;100.00
47670;BME280;33408;52.062;11.722;2023-07-13T03:56:33;100963.00;;;19.11;100.00
47670;BME280;33408;52.062;11.722;2023-07-13T03:59:00;100967.66;;;19.57;100.00
47670;BME280;33408;52.062;11.722;2023-07-13T04:01:27;100969.97;;;19.81;100.00
47670;BME280;33408;52.062;11.722;2023-07-13T04:03:54;100980.09;;;20.68;95.03
47670;BME280;33408;52.062;11.722;2023-07-13T04:06:22;100978.47;;;21.12;88.30
47670;BME280;33408;52.062;11.722;2023-07-13T04:08:51;100986.84;;;21.19;86.06
47670;BME280;33408;52.062;11.722;2023-07-13T04:11:18;100992.50;;;20.82;87.50
47670;BME280;33408;52.062;11.722;2023-07-13T04:13:47;100984.06;;;19.96;89.28
47670;BME280;33408;52.062;11.722;2023-07-13T04:16:15;100999.66;;;19.65;97.94
47670;BME280;33408;52.062;11.722;2023-07-13T04:18:42;101000.78;;;19.44;99.10
47670;BME280;33408;52.062;11.722;2023-07-13T04:21:09;101002.94;;;19.71;100.00
47670;BME280;33408;52.062;11.722;2023-07-13T04:23:36;101005.25;;;18.70;100.00
47670;BME280;33408;52.062;11.722;2023-07-13T04:26:03;101007.22;;;19.03;100.00
47670;BME280;33408;52.062;11.722;2023-07-13T04:28:29;101003.94;;;19.16;100.00
47670;BME280;33408;52.062;11.722;2023-07-13T04:30:58;101000.41;;;18.44;100.00
47670;BME280;33408;52.062;11.722;2023-07-13T04:33:26;100995.38;;;19.12;100.00
47670;BME280;33408;52.062;11.722;2023-07-13T04:35:54;101003.50;;;18.71;100.00
47670;BME280;33408;52.062;11.722;2023-07-13T04:38:23;101002.13;;;18.07;100.00
47670;BME280;33408;52.062;11.722;2023-07-13T04:40:54;101004.44;;;17.73;100.00
47670;BME280;33408;52.062;11.722;2023-07-13T04:43:21;101009.34;;;17.81;100.00
47670;BME280;33408;52.062;11.722;2023-07-13T04:45:47;101010.31;;;17.78;100.00
47670;BME280;33408;52.062;11.722;2023-07-13T04:48:15;101014.44;;;18.43;100.00
47670;BME280;33408;52.062;11.722;2023-07-13T04:50:42;101005.22;;;18.53;100.00
47670;BME280;33408;52.062;11.722;2023-07-13T04:53:08;101011.34;;;18.53;100.00
47670;BME280;33408;52.062;11.722;2023-07-13T04:55:35;101005.78;;;19.99;100.00
47670;BME280;33408;52.062;11.722;2023-07-13T04:58:02;101012.22;;;19.43;100.00
47670;BME280;33408;52.062;11.722;2023-07-13T05:00:29;101006.91;;;18.73;100.00
47670;BME280;33408;52.062;11.722;2023-07-13T05:02:57;101001.84;;;18.87;100.00
47670;BME280;33408;52.062;11.722;2023-07-13T05:05:26;101001.81;;;18.51;100.00
47670;BME280;33408;52.062;11.722;2023-07-13T05:07:53;101000.91;;;18.52;100.00
47670;BME280;33408;52.062;11.722;2023-07-13T05:10:20;101004.50;;;18.49;100.00
47670;BME280;33408;52.062;11.722;2023-07-13T05:12:47;101009.56;;;18.35;100.00
47670;BME280;33408;52.062;11.722;2023-07-13T05:15:14;101007.00;;;18.33;100.00
47670;BME280;33408;52.062;11.722;2023-07-13T05:17:40;101006.09;;;18.34;100.00
47670;BME280;33408;52.062;11.722;2023-07-13T05:20:08;101013.97;;;18.90;100.00
47670;BME280;33408;52.062;11.722;2023-07-13T05:22:36;101006.34;;;19.03;100.00
47670;BME280;33408;52.062;11.722;2023-07-13T05:25:04;101008.06;;;18.48;100.00
47670;BME280;33408;52.062;11.722;2023-07-13T05:27:31;101014.56;;;18.97;100.00
47670;BME280;33408;52.062;11.722;2023-07-13T05:29:58;101014.78;;;19.27;100.00
47670;BME280;33408;52.062;11.722;2023-07-13T05:32:24;101016.06;;;19.71;100.00
47670;BME280;33408;52.062;11.722;2023-07-13T05:34:51;101015.19;;;19.70;100.00
47670;BME280;33408;52.062;11.722;2023-07-13T05:37:18;101001.78;;;20.42;100.00
47670;BME280;33408;52.062;11.722;2023-07-13T05:39:46;100997.34;;;20.58;99.66
47670;BME280;33408;52.062;11.722;2023-07-13T05:42:12;101012.41;;;20.56;99.51
47670;BME280;33408;52.062;11.722;2023-07-13T05:44:39;101010.25;;;20.31;100.00
47670;BME280;33408;52.062;11.722;2023-07-13T05:47:06;101008.56;;;21.24;96.78
47670;BME280;33408;52.062;11.722;2023-07-13T05:49:32;101004.78;;;22.57;84.55
47670;BME280;33408;52.062;11.722;2023-07-13T05:51:59;101006.56;;;21.72;84.34
47670;BME280;33408;52.062;11.722;2023-07-13T05:54:26;101004.50;;;22.06;84.57
47670;BME280;33408;52.062;11.722;2023-07-13T05:56:54;101014.44;;;23.39;78.64
47670;BME280;33408;52.062;11.722;2023-07-13T05:59:21;101005.97;;;23.72;73.75
47670;BME280;33408;52.062;11.722;2023-07-13T06:01:48;100996.78;;;24.28;69.45
47670;BME280;33408;52.062;11.722;2023-07-13T06:04:17;101002.94;;;23.91;69.93
47670;BME280;33408;52.062;11.722;2023-07-13T06:06:43;101012.63;;;23.52;70.33
47670;BME280;33408;52.062;11.722;2023-07-13T06:09:10;101017.78;;;23.28;70.63
47670;BME280;33408;52.062;11.722;2023-07-13T06:11:37;101025.31;;;23.21;70.05
47670;BME280;33408;52.062;11.722;2023-07-13T06:14:04;101020.13;;;22.92;70.37
47670;BME280;33408;52.062;11.722;2023-07-13T06:16:31;101018.13;;;23.23;68.91
47670;BME280;33408;52.062;11.722;2023-07-13T06:18:58;101020.34;;;23.02;68.04
47670;BME280;33408;52.062;11.722;2023-07-13T06:21:24;101018.75;;;23.14;68.57
47670;BME280;33408;52.062;11.722;2023-07-13T06:23:52;101017.34;;;22.81;67.46
47670;BME280;33408;52.062;11.722;2023-07-13T06:26:19;101022.91;;;23.04;66.77
47670;BME280;33408;52.062;11.722;2023-07-13T06:28:46;101022.22;;;22.87;67.52
47670;BME280;33408;52.062;11.722;2023-07-13T06:31:15;101024.91;;;23.27;66.99
47670;BME280;33408;52.062;11.722;2023-07-13T06:33:42;101024.50;;;23.06;66.44
47670;BME280;33408;52.062;11.722;2023-07-13T06:36:09;101017.03;;;23.13;66.29
47670;BME280;33408;52.062;11.722;2023-07-13T06:38:35;101025.00;;;23.26;64.55
47670;BME280;33408;52.062;11.722;2023-07-13T06:41:01;101011.31;;;22.52;67.06
47670;BME280;33408;52.062;11.722;2023-07-13T06:43:28;101011.63;;;22.04;69.26
47670;BME280;33408;52.062;11.722;2023-07-13T06:45:56;101019.28;;;22.09;70.09
47670;BME280;33408;52.062;11.722;2023-07-13T06:48:25;101018.88;;;22.44;69.42
47670;BME280;33408;52.062;11.722;2023-07-13T06:50:51;101025.97;;;22.29;68.70
47670;BME280;33408;52.062;11.722;2023-07-13T06:53:19;101018.19;;;22.54;69.78
47670;BME280;33408;52.062;11.722;2023-07-13T06:55:46;101022.19;;;22.33;70.38
47670;BME280;33408;52.062;11.722;2023-07-13T06:58:17;101022.47;;;22.43;69.47
47670;BME280;33408;52.062;11.722;2023-07-13T07:00:44;101026.16;;;22.26;69.63
47670;BME280;33408;52.062;11.722;2023-07-13T07:03:10;101024.63;;;22.50;70.68
47670;BME280;33408;52.062;11.722;2023-07-13T07:05:38;101022.75;;;22.52;70.32
47670;BME280;33408;52.062;11.722;2023-07-13T07:08:05;101023.47;;;22.54;69.10
47670;BME280;33408;52.062;11.722;2023-07-13T07:10:32;101035.34;;;22.89;69.67
47670;BME280;33408;52.062;11.722;2023-07-13T07:12:59;101030.56;;;22.81;67.89
47670;BME280;33408;52.062;11.722;2023-07-13T07:15:26;101034.00;;;22.69;69.18
47670;BME280;33408;52.062;11.722;2023-07-13T07:17:53;101034.81;;;22.84;67.86
47670;BME280;33408;52.062;11.722;2023-07-13T07:20:20;101029.19;;;22.34;68.15
47670;BME280;33408;52.062;11.722;2023-07-13T07:22:48;101032.31;;;22.68;68.89
47670;BME280;33408;52.062;11.722;2023-07-13T07:25:15;101039.38;;;22.40;68.69
47670;BME280;33408;52.062;11.722;2023-07-13T07:27:41;101042.44;;;22.61;69.75
47670;BME280;33408;52.062;11.722;2023-07-13T07:30:08;101042.97;;;22.93;69.25
47670;BME280;33408;52.062;11.722;2023-07-13T07:32:35;101044.94;;;23.04;67.80
47670;BME280;33408;52.062;11.722;2023-07-13T07:35:02;101036.94;;;22.64;67.77
47670;BME280;33408;52.062;11.722;2023-07-13T07:37:28;101044.06;;;23.04;68.91
47670;BME280;33408;52.062;11.722;2023-07-13T07:39:56;101050.28;;;22.48;69.50
47670;BME280;33408;52.062;11.722;2023-07-13T07:42:24;101050.28;;;23.17;67.63
47670;BME280;33408;52.062;11.722;2023-07-13T07:44:51;101041.53;;;23.42;66.39
47670;BME280;33408;52.062;11.722;2023-07-13T07:47:17;101035.91;;;23.47;65.66
47670;BME280;33408;52.062;11.722;2023-07-13T07:49:44;101047.59;;;23.44;64.51
47670;BME280;33408;52.062;11.722;2023-07-13T07:52:10;101042.63;;;23.65;63.02
47670;BME280;33408;52.062;11.722;2023-07-13T07:54:37;101045.78;;;23.71;62.65
47670;BME280;33408;52.062;11.722;2023-07-13T07:57:06;101043.91;;;23.98;60.86
47670;BME280;33408;52.062;11.722;2023-07-13T07:59:33;101039.69;;;23.83;60.92
47670;BME280;33408;52.062;11.722;2023-07-13T08:02:00;101046.09;;;23.79;60.80
47670;BME280;33408;52.062;11.722;2023-07-13T08:04:27;101047.56;;;23.32;61.08
47670;BME280;33408;52.062;11.722;2023-07-13T08:06:55;101039.78;;;23.94;58.53
47670;BME280;33408;52.062;11.722;2023-07-13T08:09:22;101042.00;;;23.09;59.35
47670;BME280;33408;52.062;11.722;2023-07-13T08:11:49;101041.56;;;23.15;59.83
47670;BME280;33408;52.062;11.722;2023-07-13T08:14:24;101040.59;;;23.82;58.24
47670;BME280;33408;52.062;11.722;2023-07-13T08:16:50;101048.63;;;23.55;58.70
47670;BME280;33408;52.062;11.722;2023-07-13T08:19:17;101054.59;;;23.84;58.32
47670;BME280;33408;52.062;11.722;2023-07-13T08:21:43;101048.63;;;23.42;58.60
47670;BME280;33408;52.062;11.722;2023-07-13T08:24:10;101051.28;;;23.67;59.20
47670;BME280;33408;52.062;11.722;2023-07-13T08:26:36;101054.06;;;24.05;59.05
47670;BME280;33408;52.062;11.722;2023-07-13T08:29:03;101057.72;;;23.63;59.29
47670;BME280;33408;52.062;11.722;2023-07-13T08:31:31;101051.50;;;24.16;57.61
47670;BME280;33408;52.062;11.722;2023-07-13T08:33:59;101047.09;;;24.40;57.17
47670;BME280;33408;52.062;11.722;2023-07-13T08:36:25;101047.91;;;24.67;56.78
47670;BME280;33408;52.062;11.722;2023-07-13T08:38:53;101054.06;;;24.05;55.79
47670;BME280;33408;52.062;11.722;2023-07-13T08:41:20;101051.59;;;24.27;55.62
47670;BME280;33408;52.062;11.722;2023-07-13T08:43:49;101047.16;;;24.89;54.31
47670;BME280;33408;52.062;11.722;2023-07-13T08:46:19;101042.72;;;24.89;54.54
47670;BME280;33408;52.062;11.722;2023-07-13T08:48:53;101038.97;;;24.68;53.46
47670;BME280;33408;52.062;11.722;2023-07-13T08:51:35;101046.38;;;24.75;53.50
47670;BME280;33408;52.062;11.722;2023-07-13T08:54:12;101034.97;;;24.62;51.54
47670;BME280;33408;52.062;11.722;2023-07-13T08:56:44;101052.63;;;24.74;51.75
47670;BME280;33408;52.062;11.722;2023-07-13T08:59:14;101052.81;;;25.08;51.99
47670;BME280;33408;52.062;11.722;2023-07-13T09:02:10;101049.63;;;24.79;52.60
47670;BME280;33408;52.062;11.722;2023-07-13T09:04:46;101043.38;;;25.40;49.95
47670;BME280;33408;52.062;11.722;2023-07-13T09:07:23;101046.66;;;25.43;48.15
47670;BME280;33408;52.062;11.722;2023-07-13T09:10:03;101030.72;;;25.43;48.06
47670;BME280;33408;52.062;11.722;2023-07-13T09:12:40;101031.31;;;24.76;49.80
47670;BME280;33408;52.062;11.722;2023-07-13T09:15:22;101034.78;;;24.52;49.32
47670;BME280;33408;52.062;11.722;2023-07-13T09:17:51;101042.84;;;24.01;50.30
47670;BME280;33408;52.062;11.722;2023-07-13T09:20:25;101048.13;;;24.01;50.30
47670;BME280;33408;52.062;11.722;2023-07-13T09:22:53;101045.50;;;24.01;50.15
47670;BME280;33408;52.062;11.722;2023-07-13T09:25:31;101039.94;;;24.67;49.22
47670;BME280;33408;52.062;11.722;2023-07-13T09:28:01;101041.97;;;24.63;48.96
47670;BME280;33408;52.062;11.722;2023-07-13T09:30:37;101047.66;;;25.65;47.11
47670;BME280;33408;52.062;11.722;2023-07-13T09:33:06;101036.94;;;25.78;46.65
47670;BME280;33408;52.062;11.722;2023-07-13T09:35:35;101036.34;;;25.97;46.41
47670;BME280;33408;52.062;11.722;2023-07-13T09:38:11;101040.22;;;26.15;45.37
47670;BME280;33408;52.062;11.722;2023-07-13T09:40:54;101043.22;;;25.77;47.96
47670;BME280;33408;52.062;11.722;2023-07-13T09:43:25;101046.06;;;25.16;48.16
47670;BME280;33408;52.062;11.722;2023-07-13T09:45:54;101046.91;;;25.16;48.15
47670;BME280;33408;52.062;11.722;2023-07-13T09:48:21;101043.16;;;25.07;47.64
47670;BME280;33408;52.062;11.722;2023-07-13T09:50:54;101037.38;;;25.14;47.11
47670;BME280;33408;52.062;11.722;2023-07-13T09:53:21;101041.22;;;24.61;47.25
47670;BME280;33408;52.062;11.722;2023-07-13T09:55:49;101038.25;;;24.90;46.77
47670;BME280;33408;52.062;11.722;2023-07-13T09:58:19;101041.34;;;25.43;46.73
47670;BME280;33408;52.062;11.722;2023-07-13T10:00:53;101044.78;;;25.57;47.10
47670;BME280;33408;52.062;11.722;2023-07-13T10:03:22;101042.81;;;25.12;46.76
47670;BME280;33408;52.062;11.722;2023-07-13T10:05:52;101049.56;;;24.68;47.95
47670;BME280;33408;52.062;11.722;2023-07-13T10:08:23;101055.63;;;24.20;48.50
47670;BME280;33408;52.062;11.722;2023-07-13T10:10:57;101055.31;;;24.62;48.15
47670;BME280;33408;52.062;11.722;2023-07-13T10:13:30;101050.13;;;24.23;49.13
47670;BME280;33408;52.062;11.722;2023-07-13T10:15:58;101060.22;;;24.42;50.13
47670;BME280;33408;52.062;11.722;2023-07-13T10:18:26;101062.25;;;24.38;49.98
47670;BME280;33408;52.062;11.722;2023-07-13T10:21:08;101067.91;;;25.19;49.89
47670;BME280;33408;52.062;11.722;2023-07-13T10:23:37;101058.88;;;25.57;48.70
47670;BME280;33408;52.062;11.722;2023-07-13T10:26:05;101060.00;;;25.89;47.98
47670;BME280;33408;52.062;11.722;2023-07-13T10:28:36;101062.41;;;26.37;46.62
47670;BME280;33408;52.062;11.722;2023-07-13T10:31:10;101066.03;;;25.91;46.98
47670;BME280;33408;52.062;11.722;2023-07-13T10:33:38;101060.50;;;25.94;46.75
47670;BME280;33408;52.062;11.722;2023-07-13T10:36:31;101076.28;;;25.84;47.11
47670;BME280;33408;52.062;11.722;2023-07-13T10:39:02;101062.38;;;24.98;48.06
47670;BME280;33408;52.062;11.722;2023-07-13T10:41:33;101058.41;;;25.75;46.51
47670;BME280;33408;52.062;11.722;2023-07-13T10:44:01;101068.22;;;25.39;45.88
47670;BME280;33408;52.062;11.722;2023-07-13T10:46:30;101058.38;;;25.52;46.17
47670;BME280;33408;52.062;11.722;2023-07-13T10:48:59;101065.69;;;25.95;46.06
47670;BME280;33408;52.062;11.722;2023-07-13T10:51:29;101082.75;;;24.73;47.80
47670;BME280;33408;52.062;11.722;2023-07-13T10:54:20;101075.28;;;24.42;47.75
47670;BME280;33408;52.062;11.722;2023-07-13T10:56:51;101079.78;;;24.78;48.30
47670;BME280;33408;52.062;11.722;2023-07-13T10:59:24;101081.69;;;25.00;47.74
47670;BME280;33408;52.062;11.722;2023-07-13T11:01:56;101077.84;;;25.64;46.47
47670;BME280;33408;52.062;11.722;2023-07-13T11:04:24;101080.22;;;25.20;47.02
47670;BME280;33408;52.062;11.722;2023-07-13T11:06:59;101067.97;;;25.06;47.55
47670;BME280;33408;52.062;11.722;2023-07-13T11:09:35;101072.31;;;24.46;48.24
47670;BME280;33408;52.062;11.722;2023-07-13T11:12:07;101081.59;;;24.65;48.50
47670;BME280;33408;52.062;11.722;2023-07-13T11:14:36;101081.75;;;24.37;48.92
47670;BME280;33408;52.062;11.722;2023-07-13T11:20:18;101084.31;;;25.24;48.87
47670;BME280;33408;52.062;11.722;2023-07-13T11:22:48;101078.75;;;25.52;46.75
47670;BME280;33408;52.062;11.722;2023-07-13T11:25:25;101081.50;;;25.39;46.38
47670;BME280;33408;52.062;11.722;2023-07-13T11:28:06;101080.28;;;25.32;47.18
47670;BME280;33408;52.062;11.722;2023-07-13T11:30:37;101075.25;;;25.40;47.56
47670;BME280;33408;52.062;11.722;2023-07-13T11:33:13;101073.72;;;25.71;46.81
47670;BME280;33408;52.062;11.722;2023-07-13T11:35:46;101077.91;;;26.09;46.54
47670;BME280;33408;52.062;11.722;2023-07-13T11:38:17;101070.88;;;25.97;45.45
47670;BME280;33408;52.062;11.722;2023-07-13T11:40:46;101073.94;;;26.26;45.35
47670;BME280;33408;52.062;11.722;2023-07-13T11:43:14;101067.59;;;26.38;45.07
47670;BME280;33408;52.062;11.722;2023-07-13T11:45:41;101064.13;;;26.27;45.26
47670;BME280;33408;52.062;11.722;2023-07-13T11:48:23;101060.50;;;26.39;45.23
47670;BME280;33408;52.062;11.722;2023-07-13T11:50:53;101057.88;;;26.83;43.69
47670;BME280;33408;52.062;11.722;2023-07-13T11:53:22;101061.81;;;27.21;43.61
47670;BME280;33408;52.062;11.722;2023-07-13T11:55:55;101063.16;;;25.82;44.09
47670;BME280;33408;52.062;11.722;2023-07-13T11:58:24;101057.47;;;25.05;45.68
47670;BME280;33408;52.062;11.722;2023-07-13T12:00:53;101069.00;;;24.55;46.78
47670;BME280;33408;52.062;11.722;2023-07-13T12:03:25;101070.63;;;25.06;47.07
47670;BME280;33408;52.062;11.722;2023-07-13T12:05:56;101060.53;;;25.23;46.78
47670;BME280;33408;52.062;11.722;2023-07-13T12:08:25;101065.03;;;25.69;46.54
47670;BME280;33408;52.062;11.722;2023-07-13T12:11:00;101062.50;;;25.79;46.43
47670;BME280;33408;52.062;11.722;2023-07-13T12:13:36;101078.34;;;24.61;47.44
47670;BME280;33408;52.062;11.722;2023-07-13T12:16:11;101067.91;;;24.95;47.87
47670;BME280;33408;52.062;11.722;2023-07-13T12:18:38;101067.66;;;25.46;46.38
47670;BME280;33408;52.062;11.722;2023-07-13T12:21:12;101054.47;;;26.03;45.92
47670;BME280;33408;52.062;11.722;2023-07-13T12:23:43;101057.06;;;25.58;45.88
47670;BME280;33408;52.062;11.722;2023-07-13T12:26:11;101067.28;;;25.40;45.90
47670;BME280;33408;52.062;11.722;2023-07-13T12:28:43;101052.53;;;26.28;45.24
47670;BME280;33408;52.062;11.722;2023-07-13T12:31:24;101062.31;;;26.05;44.87
47670;BME280;33408;52.062;11.722;2023-07-13T12:33:57;101068.91;;;25.65;45.66
47670;BME280;33408;52.062;11.722;2023-07-13T12:36:24;101074.19;;;25.54;46.88
47670;BME280;33408;52.062;11.722;2023-07-13T12:38:52;101073.41;;;26.21;44.73
47670;BME280;33408;52.062;11.722;2023-07-13T12:41:19;101064.94;;;25.93;43.86
47670;BME280;33408;52.062;11.722;2023-07-13T12:43:46;101075.66;;;25.80;44.56
47670;BME280;33408;52.062;11.722;2023-07-13T12:46:17;101063.41;;;26.36;44.84